createdAt,value
2016-11-17T00:00:40.491Z,1004.31
2016-11-17T00:02:40.533Z,1004.27
2016-11-17T00:03:40.554Z,1004.31
2016-11-17T00:04:40.572Z,1004.33
2016-11-17T00:05:40.593Z,1004.34
2016-11-17T00:06:40.614Z,1004.31
2016-11-17T00:07:40.635Z,1004.3
2016-11-17T00:08:40.657Z,1004.31
2016-11-17T00:09:40.678Z,1004.32
2016-11-17T00:10:40.699Z,1004.36
2016-11-17T00:11:40.716Z,1004.35
2016-11-17T00:12:40.740Z,1004.35
2016-11-17T00:13:40.758Z,1004.32
2016-11-17T00:14:40.779Z,1004.32
2016-11-17T00:15:40.799Z,1004.29
2016-11-17T00:16:40.821Z,1004.23
2016-11-17T00:18:40.863Z,1004.32
2016-11-17T00:19:40.883Z,1004.28
2016-11-17T00:20:40.904Z,1004.3
2016-11-17T00:21:40.925Z,1004.22
2016-11-17T00:22:40.945Z,1004.22
2016-11-17T00:23:40.965Z,1004.23
2016-11-17T00:24:40.986Z,1004.2
2016-11-17T00:25:41.007Z,1004.26
2016-11-17T00:26:41.026Z,1004.21
2016-11-17T00:27:41.047Z,1004.23
2016-11-17T00:28:41.068Z,1004.26
2016-11-17T00:29:41.089Z,1004.22
2016-11-17T00:30:41.109Z,1004.27
2016-11-17T00:31:41.131Z,1004.26
2016-11-17T00:32:41.151Z,1004.25
2016-11-17T00:34:41.192Z,1004.23
2016-11-17T00:35:41.214Z,1004.21
2016-11-17T00:36:41.234Z,1004.19
2016-11-17T00:37:41.254Z,1004.23
2016-11-17T00:38:41.275Z,1004.22
2016-11-17T00:39:41.297Z,1004.21
2016-11-17T00:40:41.317Z,1004.18
2016-11-17T00:41:41.338Z,1004.22
2016-11-17T00:42:41.358Z,1004.23
2016-11-17T00:43:41.380Z,1004.22
2016-11-17T00:44:41.399Z,1004.21
2016-11-17T00:45:41.420Z,1004.17
2016-11-17T00:46:41.441Z,1004.14
2016-11-17T00:47:41.462Z,1004.12
2016-11-17T00:48:41.483Z,1004.14
2016-11-17T00:50:41.524Z,1004.14
2016-11-17T00:51:41.545Z,1004.12
2016-11-17T00:52:41.566Z,1004.1
2016-11-17T00:53:41.586Z,1004.12
2016-11-17T00:54:41.607Z,1004.1
2016-11-17T00:55:41.628Z,1004.09
2016-11-17T00:56:41.649Z,1004.07
2016-11-17T00:57:41.669Z,1004.08
2016-11-17T00:58:41.690Z,1004.07
2016-11-17T00:59:41.711Z,1004.09
2016-11-17T01:00:41.732Z,1004.04
2016-11-17T01:01:41.753Z,1004.1
2016-11-17T01:02:41.773Z,1004.1
2016-11-17T01:03:41.794Z,1004.11
2016-11-17T01:05:41.837Z,1004.11
2016-11-17T01:06:41.857Z,1004.11
2016-11-17T01:07:41.878Z,1004.09
2016-11-17T01:08:41.899Z,1004.07
2016-11-17T01:09:41.919Z,1004.11
2016-11-17T01:10:41.940Z,1004.04
2016-11-17T01:11:41.961Z,1004.04
2016-11-17T01:12:41.981Z,1004.03
2016-11-17T01:13:42.001Z,1004.01
2016-11-17T01:14:42.023Z,1003.93
2016-11-17T01:15:42.043Z,1003.96
2016-11-17T01:16:42.065Z,1003.91
2016-11-17T01:17:42.085Z,1003.91
2016-11-17T01:18:42.106Z,1003.9
2016-11-17T01:19:42.126Z,1003.92
2016-11-17T01:20:42.147Z,1003.96
2016-11-17T01:21:42.168Z,1004
2016-11-17T01:22:42.190Z,1003.96
2016-11-17T01:23:42.209Z,1003.97
2016-11-17T01:24:42.230Z,1003.97
2016-11-17T01:25:42.252Z,1003.99
2016-11-17T01:26:42.273Z,1003.99
2016-11-17T01:27:42.294Z,1003.99
2016-11-17T01:28:42.316Z,1003.96
2016-11-17T01:29:42.335Z,1003.95
2016-11-17T01:30:42.355Z,1003.95
2016-11-17T01:31:42.376Z,1003.96
2016-11-17T01:32:42.396Z,1003.97
2016-11-17T01:33:42.418Z,1003.91
2016-11-17T01:34:42.439Z,1003.92
2016-11-17T01:35:42.458Z,1003.91
2016-11-17T01:37:42.500Z,1003.89
2016-11-17T01:38:42.523Z,1003.89
2016-11-17T01:39:42.542Z,1003.82
2016-11-17T01:40:42.563Z,1003.81
2016-11-17T01:41:42.585Z,1003.71
2016-11-17T01:42:42.606Z,1003.74
2016-11-17T01:43:42.626Z,1003.74
2016-11-17T01:44:42.646Z,1003.72
2016-11-17T01:45:42.668Z,1003.67
2016-11-17T01:46:42.687Z,1003.71
2016-11-17T01:47:42.709Z,1003.65
2016-11-17T01:48:42.729Z,1003.63
2016-11-17T01:49:42.751Z,1003.69
2016-11-17T01:50:42.771Z,1003.6
2016-11-17T01:51:42.792Z,1003.67
2016-11-17T01:53:42.834Z,1003.67
2016-11-17T01:54:42.854Z,1003.58
2016-11-17T01:55:42.879Z,1003.57
2016-11-17T01:56:42.897Z,1003.52
2016-11-17T01:57:42.916Z,1003.55
2016-11-17T01:58:42.939Z,1003.51
2016-11-17T01:59:42.958Z,1003.52
2016-11-17T02:00:42.981Z,1003.51
2016-11-17T02:01:43.001Z,1003.52
2016-11-17T02:02:43.022Z,1003.49
2016-11-17T02:03:43.041Z,1003.51
2016-11-17T02:04:43.063Z,1003.49
2016-11-17T02:05:43.082Z,1003.52
2016-11-17T02:06:43.103Z,1003.53
2016-11-17T02:07:43.124Z,1003.5
2016-11-17T02:09:43.165Z,1003.5
2016-11-17T02:10:43.187Z,1003.44
2016-11-17T02:11:43.210Z,1003.47
2016-11-17T02:12:43.230Z,1003.48
2016-11-17T02:13:43.248Z,1003.46
2016-11-17T02:14:43.272Z,1003.44
2016-11-17T02:15:43.290Z,1003.43
2016-11-17T02:16:43.310Z,1003.4
2016-11-17T02:17:43.331Z,1003.42
2016-11-17T02:18:43.352Z,1003.37
2016-11-17T02:19:43.371Z,1003.4
2016-11-17T02:20:43.395Z,1003.39
2016-11-17T02:21:43.415Z,1003.35
2016-11-17T02:22:43.436Z,1003.3
2016-11-17T02:23:43.456Z,1003.3
2016-11-17T02:25:43.496Z,1003.24
2016-11-17T02:26:43.517Z,1003.23
2016-11-17T02:27:43.536Z,1003.23
2016-11-17T02:28:43.557Z,1003.19
2016-11-17T02:29:43.579Z,1003.15
2016-11-17T02:30:43.599Z,1003.12
2016-11-17T02:31:43.619Z,1003.11
2016-11-17T02:32:43.640Z,1003.13
2016-11-17T02:33:43.666Z,1003.17
2016-11-17T02:34:43.682Z,1003.18
2016-11-17T02:35:43.703Z,1003.16
2016-11-17T02:36:43.723Z,1003.14
2016-11-17T02:37:43.744Z,1003.12
2016-11-17T02:38:43.865Z,1003.12
2016-11-17T02:40:43.808Z,1003.07
2016-11-17T02:41:43.826Z,1003.04
2016-11-17T02:42:43.848Z,1003.03
2016-11-17T02:43:43.870Z,1003.04
2016-11-17T02:44:43.891Z,1003.01
2016-11-17T02:45:43.910Z,1003.01
2016-11-17T02:46:43.932Z,1003.02
2016-11-17T02:47:43.952Z,1003.07
2016-11-17T02:48:43.971Z,1003.02
2016-11-17T02:49:43.993Z,1003.02
2016-11-17T02:50:44.014Z,1003
2016-11-17T02:51:44.034Z,1002.97
2016-11-17T02:52:44.055Z,1002.99
2016-11-17T02:53:44.076Z,1003
2016-11-17T02:54:44.096Z,1003.01
2016-11-17T02:55:44.117Z,1003
2016-11-17T02:56:44.138Z,1002.96
2016-11-17T02:57:44.159Z,1003.01
2016-11-17T02:58:44.179Z,1002.96
2016-11-17T02:59:44.200Z,1002.97
2016-11-17T03:00:44.225Z,1002.98
2016-11-17T03:01:44.242Z,1003
2016-11-17T03:02:44.263Z,1003.02
2016-11-17T03:03:44.281Z,1003.01
2016-11-17T03:04:44.303Z,1002.98
2016-11-17T03:05:44.324Z,1003.01
2016-11-17T03:06:44.345Z,1003.02
2016-11-17T03:07:44.364Z,1003.03
2016-11-17T03:08:44.385Z,1003.05
2016-11-17T03:09:44.407Z,1003.03
2016-11-17T03:10:44.427Z,1003.03
2016-11-17T03:12:44.469Z,1003.1
2016-11-17T03:13:44.490Z,1003.05
2016-11-17T03:14:44.509Z,1003.01
2016-11-17T03:15:44.531Z,1002.98
2016-11-17T03:16:44.550Z,1002.92
2016-11-17T03:17:44.572Z,1002.85
2016-11-17T03:18:44.591Z,1002.81
2016-11-17T03:19:44.612Z,1002.83
2016-11-17T03:20:44.634Z,1002.8
2016-11-17T03:21:44.653Z,1002.85
2016-11-17T03:22:44.675Z,1002.83
2016-11-17T03:23:44.695Z,1002.83
2016-11-17T03:24:44.718Z,1002.86
2016-11-17T03:25:44.736Z,1002.78
2016-11-17T03:26:44.758Z,1002.8
2016-11-17T03:28:44.801Z,1002.77
2016-11-17T03:29:44.821Z,1002.81
2016-11-17T03:30:44.842Z,1002.78
2016-11-17T03:31:44.863Z,1002.76
2016-11-17T03:32:44.882Z,1002.81
2016-11-17T03:33:44.903Z,1002.82
2016-11-17T03:34:44.926Z,1002.84
2016-11-17T03:35:44.946Z,1002.8
2016-11-17T03:36:44.965Z,1002.8
2016-11-17T03:37:44.988Z,1002.72
2016-11-17T03:38:45.008Z,1002.72
2016-11-17T03:39:45.030Z,1002.69
2016-11-17T03:40:45.049Z,1002.66
2016-11-17T03:41:45.071Z,1002.67
2016-11-17T03:42:45.091Z,1002.63
2016-11-17T03:44:45.133Z,1002.65
2016-11-17T03:45:45.155Z,1002.67
2016-11-17T03:46:45.175Z,1002.63
2016-11-17T03:47:45.195Z,1002.62
2016-11-17T03:48:45.216Z,1002.65
2016-11-17T03:49:45.237Z,1002.7
2016-11-17T03:50:45.259Z,1002.65
2016-11-17T03:51:45.279Z,1002.59
2016-11-17T03:52:45.300Z,1002.57
2016-11-17T03:53:45.322Z,1002.6
2016-11-17T03:54:45.341Z,1002.53
2016-11-17T03:55:45.362Z,1002.55
2016-11-17T03:56:45.383Z,1002.54
2016-11-17T03:57:45.404Z,1002.54
2016-11-17T03:58:45.424Z,1002.45
2016-11-17T04:00:45.467Z,1002.47
2016-11-17T04:01:45.489Z,1002.47
2016-11-17T04:02:45.509Z,1002.43
2016-11-17T04:03:45.529Z,1002.43
2016-11-17T04:04:45.551Z,1002.48
2016-11-17T04:05:45.571Z,1002.43
2016-11-17T04:06:45.591Z,1002.41
2016-11-17T04:07:45.614Z,1002.36
2016-11-17T04:08:45.634Z,1002.43
2016-11-17T04:09:45.654Z,1002.38
2016-11-17T04:10:45.676Z,1002.39
2016-11-17T04:11:45.697Z,1002.36
2016-11-17T04:12:45.718Z,1002.39
2016-11-17T04:13:45.738Z,1002.34
2016-11-17T04:15:45.788Z,1002.36
2016-11-17T04:16:45.800Z,1002.35
2016-11-17T04:17:45.822Z,1002.4
2016-11-17T04:18:45.843Z,1002.35
2016-11-17T04:19:45.915Z,1002.33
2016-11-17T04:20:45.886Z,1002.35
2016-11-17T04:21:45.907Z,1002.33
2016-11-17T04:22:45.928Z,1002.35
2016-11-17T04:23:45.948Z,1002.31
2016-11-17T04:24:45.969Z,1002.3
2016-11-17T04:25:45.989Z,1002.27
2016-11-17T04:26:46.011Z,1002.32
2016-11-17T04:27:46.031Z,1002.3
2016-11-17T04:28:46.053Z,1002.29
2016-11-17T04:29:46.073Z,1002.22
2016-11-17T04:30:46.095Z,1002.25
2016-11-17T04:31:46.115Z,1002.24
2016-11-17T04:32:46.136Z,1002.21
2016-11-17T04:33:46.157Z,1002.24
2016-11-17T04:34:46.183Z,1002.22
2016-11-17T04:35:46.198Z,1002.25
2016-11-17T04:36:46.220Z,1002.24
2016-11-17T04:37:46.242Z,1002.22
2016-11-17T04:38:46.262Z,1002.25
2016-11-17T04:39:46.283Z,1002.27
2016-11-17T04:40:46.305Z,1002.27
2016-11-17T04:41:46.325Z,1002.27
2016-11-17T04:42:46.346Z,1002.18
2016-11-17T04:43:46.367Z,1002.21
2016-11-17T04:44:46.387Z,1002.19
2016-11-17T04:45:46.408Z,1002.2
2016-11-17T04:47:46.451Z,1002.19
2016-11-17T04:48:46.472Z,1002.12
2016-11-17T04:49:46.491Z,1002.16
2016-11-17T04:50:46.513Z,1002.15
2016-11-17T04:51:46.534Z,1002.12
2016-11-17T04:52:46.555Z,1002.16
2016-11-17T04:53:46.575Z,1002.1
2016-11-17T04:54:46.596Z,1002.12
2016-11-17T04:55:46.619Z,1002.11
2016-11-17T04:56:46.638Z,1002.08
2016-11-17T04:57:46.660Z,1002.11
2016-11-17T04:58:46.680Z,1002.06
2016-11-17T04:59:46.701Z,1002.07
2016-11-17T05:00:46.722Z,1002.09
2016-11-17T05:01:46.743Z,1002.07
2016-11-17T05:03:46.786Z,1002.06
2016-11-17T05:04:46.806Z,1002.02
2016-11-17T05:05:46.828Z,1002.09
2016-11-17T05:06:46.849Z,1002.1
2016-11-17T05:07:46.869Z,1002.12
2016-11-17T05:08:46.889Z,1002.11
2016-11-17T05:09:46.911Z,1002.08
2016-11-17T05:10:46.932Z,1002.07
2016-11-17T05:11:46.953Z,1002.05
2016-11-17T05:12:46.974Z,1001.98
2016-11-17T05:13:46.994Z,1001.99
2016-11-17T05:14:47.017Z,1001.98
2016-11-17T05:15:47.037Z,1002.02
2016-11-17T05:16:47.057Z,1002.01
2016-11-17T05:17:47.080Z,1002.04
2016-11-17T05:19:47.121Z,1002
2016-11-17T05:20:47.144Z,1002.03
2016-11-17T05:21:47.162Z,1002.02
2016-11-17T05:22:47.184Z,1002
2016-11-17T05:23:47.205Z,1002.04
2016-11-17T05:24:47.226Z,1002.02
2016-11-17T05:25:47.246Z,1002.01
2016-11-17T05:26:47.267Z,1002.02
2016-11-17T05:27:47.289Z,1002.01
2016-11-17T05:28:47.309Z,1002.02
2016-11-17T05:29:47.330Z,1002.03
2016-11-17T05:30:47.351Z,1002.03
2016-11-17T05:31:47.373Z,1002.04
2016-11-17T05:32:47.394Z,1002.04
2016-11-17T05:33:47.414Z,1002.03
2016-11-17T05:35:47.456Z,1001.98
2016-11-17T05:36:47.477Z,1002
2016-11-17T05:37:47.497Z,1002.01
2016-11-17T05:38:47.518Z,1002.01
2016-11-17T05:39:47.541Z,1002.04
2016-11-17T05:40:47.560Z,1002.01
2016-11-17T05:41:47.583Z,1001.94
2016-11-17T05:42:47.603Z,1001.97
2016-11-17T05:43:47.625Z,1001.89
2016-11-17T05:44:47.644Z,1001.93
2016-11-17T05:45:47.666Z,1001.87
2016-11-17T05:46:47.687Z,1001.9
2016-11-17T05:47:47.724Z,1001.93
2016-11-17T05:48:47.730Z,1001.92
2016-11-17T05:50:47.773Z,1001.9
2016-11-17T05:51:47.792Z,1001.93
2016-11-17T05:52:47.814Z,1001.94
2016-11-17T05:53:47.834Z,1001.87
2016-11-17T05:54:47.857Z,1001.93
2016-11-17T05:55:47.877Z,1001.98
2016-11-17T05:56:47.898Z,1001.97
2016-11-17T05:57:47.918Z,1002.02
2016-11-17T05:58:47.938Z,1002
2016-11-17T05:59:47.959Z,1002.03
2016-11-17T06:00:47.981Z,1002.04
2016-11-17T06:01:48.003Z,1002.1
2016-11-17T06:02:48.022Z,1002.09
2016-11-17T06:03:48.043Z,1002.02
2016-11-17T06:04:48.066Z,1002.04
2016-11-17T06:05:48.087Z,1002.06
2016-11-17T06:06:48.106Z,1002.13
2016-11-17T06:07:48.128Z,1002.1
2016-11-17T06:08:48.148Z,1002.15
2016-11-17T06:09:48.169Z,1002.16
2016-11-17T06:10:48.190Z,1002.19
2016-11-17T06:11:48.211Z,1002.15
2016-11-17T06:12:48.233Z,1002.16
2016-11-17T06:13:48.253Z,1002.18
2016-11-17T06:14:48.273Z,1002.16
2016-11-17T06:15:48.295Z,1002.16
2016-11-17T06:16:48.315Z,1002.18
2016-11-17T06:17:48.336Z,1002.14
2016-11-17T06:18:48.357Z,1002.12
2016-11-17T06:19:48.378Z,1002.13
2016-11-17T06:20:48.399Z,1002.15
2016-11-17T06:22:48.441Z,1002.13
2016-11-17T06:23:48.462Z,1002.14
2016-11-17T06:24:48.481Z,1002.14
2016-11-17T06:25:48.503Z,1002.07
2016-11-17T06:26:48.574Z,1002.09
2016-11-17T06:27:48.545Z,1002.15
2016-11-17T06:28:48.565Z,1002.11
2016-11-17T06:29:48.587Z,1002.1
2016-11-17T06:30:48.609Z,1002.08
2016-11-17T06:31:48.629Z,1002.13
2016-11-17T06:32:48.650Z,1002.13
2016-11-17T06:33:48.671Z,1002.13
2016-11-17T06:34:48.692Z,1002.17
2016-11-17T06:35:48.715Z,1002.17
2016-11-17T06:36:48.734Z,1002.19
2016-11-17T06:38:48.775Z,1002.15
2016-11-17T06:39:48.796Z,1002.19
2016-11-17T06:40:48.818Z,1002.2
2016-11-17T06:41:48.838Z,1002.2
2016-11-17T06:42:48.858Z,1002.22
2016-11-17T06:43:48.880Z,1002.23
2016-11-17T06:44:48.902Z,1002.23
2016-11-17T06:45:48.923Z,1002.27
2016-11-17T06:46:48.943Z,1002.29
2016-11-17T06:47:48.963Z,1002.24
2016-11-17T06:48:48.985Z,1002.26
2016-11-17T06:49:49.007Z,1002.25
2016-11-17T06:50:49.026Z,1002.23
2016-11-17T06:51:49.048Z,1002.24
2016-11-17T06:52:49.069Z,1002.26
2016-11-17T06:54:49.111Z,1002.2
2016-11-17T06:55:49.132Z,1002.24
2016-11-17T06:56:49.152Z,1002.31
2016-11-17T06:57:49.172Z,1002.25
2016-11-17T06:58:49.193Z,1002.26
2016-11-17T06:59:49.215Z,1002.26
2016-11-17T07:00:49.235Z,1002.26
2016-11-17T07:01:49.255Z,1002.22
2016-11-17T07:02:49.276Z,1002.24
2016-11-17T07:03:49.298Z,1002.18
2016-11-17T07:04:49.318Z,1002.22
2016-11-17T07:05:49.339Z,1002.21
2016-11-17T07:06:49.361Z,1002.2
2016-11-17T07:07:49.382Z,1002.2
2016-11-17T07:08:49.451Z,1002.22
2016-11-17T07:10:49.444Z,1002.22
2016-11-17T07:11:49.465Z,1002.21
2016-11-17T07:12:49.484Z,1002.19
2016-11-17T07:13:49.506Z,1002.2
2016-11-17T07:14:49.527Z,1002.16
2016-11-17T07:15:49.548Z,1002.17
2016-11-17T07:16:49.569Z,1002.14
2016-11-17T07:17:49.590Z,1002.17
2016-11-17T07:18:49.611Z,1002.13
2016-11-17T07:19:49.630Z,1002.14
2016-11-17T07:20:49.653Z,1002.15
2016-11-17T07:21:49.673Z,1002.11
2016-11-17T07:22:49.697Z,1002.12
2016-11-17T07:23:49.716Z,1002.06
2016-11-17T07:25:49.759Z,1002.05
2016-11-17T07:26:49.780Z,1002.08
2016-11-17T07:27:49.801Z,1002.09
2016-11-17T07:28:49.822Z,1002.07
2016-11-17T07:29:49.851Z,1002.07
2016-11-17T07:30:49.865Z,1002.07
2016-11-17T07:31:49.888Z,1002.06
2016-11-17T07:32:49.905Z,1002.05
2016-11-17T07:33:49.927Z,1002.09
2016-11-17T07:34:49.947Z,1002.02
2016-11-17T07:35:49.970Z,1002.07
2016-11-17T07:36:49.991Z,1002.01
2016-11-17T07:37:50.011Z,1002.02
2016-11-17T07:38:50.032Z,1001.97
2016-11-17T07:39:50.053Z,1001.98
2016-11-17T07:40:50.075Z,1001.95
2016-11-17T07:41:50.145Z,1001.95
2016-11-17T07:42:50.117Z,1001.93
2016-11-17T07:43:50.137Z,1001.94
2016-11-17T07:44:50.158Z,1001.93
2016-11-17T07:45:50.180Z,1001.93
2016-11-17T07:46:50.202Z,1001.93
2016-11-17T07:47:50.222Z,1001.94
2016-11-17T07:48:50.244Z,1001.93
2016-11-17T07:49:50.265Z,1001.93
2016-11-17T07:50:50.286Z,1001.93
2016-11-17T07:51:50.307Z,1001.94
2016-11-17T07:52:50.329Z,1001.92
2016-11-17T07:53:50.349Z,1001.94
2016-11-17T07:54:50.371Z,1001.97
2016-11-17T07:55:50.392Z,1001.96
2016-11-17T07:57:50.434Z,1001.92
2016-11-17T07:58:50.456Z,1001.9
2016-11-17T07:59:50.477Z,1001.92
2016-11-17T08:00:50.498Z,1001.89
2016-11-17T08:01:50.519Z,1001.86
2016-11-17T08:02:50.592Z,1001.9
2016-11-17T08:03:50.561Z,1001.85
2016-11-17T08:04:50.582Z,1001.88
2016-11-17T08:05:50.603Z,1001.87
2016-11-17T08:06:50.624Z,1001.91
2016-11-17T08:07:50.647Z,1001.92
2016-11-17T08:08:50.667Z,1001.89
2016-11-17T08:09:50.689Z,1001.91
2016-11-17T08:10:50.711Z,1001.94
2016-11-17T08:11:50.732Z,1001.91
2016-11-17T08:13:50.775Z,1001.9
2016-11-17T08:14:50.796Z,1001.88
2016-11-17T08:15:50.868Z,1001.9
2016-11-17T08:16:50.839Z,1001.93
2016-11-17T08:17:50.859Z,1001.9
2016-11-17T08:18:50.882Z,1001.94
2016-11-17T08:19:50.903Z,1001.86
2016-11-17T08:20:50.924Z,1001.87
2016-11-17T08:21:50.946Z,1001.85
2016-11-17T08:22:50.968Z,1001.84
2016-11-17T08:23:50.988Z,1001.88
2016-11-17T08:24:51.010Z,1001.83
2016-11-17T08:25:51.032Z,1001.83
2016-11-17T08:26:51.054Z,1001.86
2016-11-17T08:27:51.075Z,1001.86
2016-11-17T08:29:51.118Z,1001.86
2016-11-17T08:30:51.140Z,1001.79
2016-11-17T08:31:51.162Z,1001.8
2016-11-17T08:32:51.182Z,1001.75
2016-11-17T08:33:51.203Z,1001.75
2016-11-17T08:34:51.227Z,1001.72
2016-11-17T08:35:51.248Z,1001.66
2016-11-17T08:36:51.269Z,1001.71
2016-11-17T08:37:51.292Z,1001.73
2016-11-17T08:38:51.314Z,1001.73
2016-11-17T08:39:51.335Z,1001.73
2016-11-17T08:40:51.357Z,1001.75
2016-11-17T08:41:51.379Z,1001.75
2016-11-17T08:42:51.399Z,1001.68
2016-11-17T08:43:51.421Z,1001.7
2016-11-17T08:45:51.466Z,1001.69
2016-11-17T08:46:51.488Z,1001.67
2016-11-17T08:47:51.508Z,1001.72
2016-11-17T08:48:51.533Z,1001.69
2016-11-17T08:49:51.553Z,1001.71
2016-11-17T08:50:51.573Z,1001.7
2016-11-17T08:51:51.645Z,1001.67
2016-11-17T08:52:51.618Z,1001.69
2016-11-17T08:53:51.689Z,1001.68
2016-11-17T08:54:51.660Z,1001.69
2016-11-17T08:55:51.682Z,1001.67
2016-11-17T08:56:51.704Z,1001.68
2016-11-17T08:57:51.727Z,1001.67
2016-11-17T08:58:51.750Z,1001.7
2016-11-17T09:00:51.793Z,1001.71
2016-11-17T09:01:51.816Z,1001.72
2016-11-17T09:02:51.838Z,1001.7
2016-11-17T09:03:51.860Z,1001.72
2016-11-17T09:04:51.881Z,1001.71
2016-11-17T09:05:51.908Z,1001.67
2016-11-17T09:06:51.925Z,1001.68
2016-11-17T09:07:51.949Z,1001.69
2016-11-17T09:08:51.970Z,1001.67
2016-11-17T09:09:51.991Z,1001.64
2016-11-17T09:10:52.014Z,1001.67
2016-11-17T09:11:52.037Z,1001.65
2016-11-17T09:12:52.058Z,1001.65
2016-11-17T09:13:52.081Z,1001.66
2016-11-17T09:14:52.103Z,1001.62
2016-11-17T09:15:52.126Z,1001.58
2016-11-17T09:16:52.147Z,1001.55
2016-11-17T09:17:52.170Z,1001.56
2016-11-17T09:18:52.191Z,1001.54
2016-11-17T09:19:52.264Z,1001.55
2016-11-17T09:20:52.235Z,1001.52
2016-11-17T09:21:52.258Z,1001.54
2016-11-17T09:22:52.280Z,1001.5
2016-11-17T09:23:52.303Z,1001.56
2016-11-17T09:24:52.325Z,1001.54
2016-11-17T09:25:52.353Z,1001.55
2016-11-17T09:26:52.369Z,1001.55
2016-11-17T09:27:52.392Z,1001.56
2016-11-17T09:28:52.415Z,1001.54
2016-11-17T09:29:52.436Z,1001.54
2016-11-17T09:30:52.459Z,1001.57
2016-11-17T09:32:52.503Z,1001.48
2016-11-17T09:33:52.527Z,1001.53
2016-11-17T09:34:52.547Z,1001.56
2016-11-17T09:35:52.571Z,1001.55
2016-11-17T09:36:52.592Z,1001.52
2016-11-17T09:37:52.615Z,1001.46
2016-11-17T09:38:52.637Z,1001.47
2016-11-17T09:39:52.660Z,1001.47
2016-11-17T09:40:52.682Z,1001.44
2016-11-17T09:41:52.703Z,1001.44
2016-11-17T09:42:52.726Z,1001.45
2016-11-17T09:43:52.749Z,1001.4
2016-11-17T09:44:52.772Z,1001.45
2016-11-17T09:45:52.792Z,1001.44
2016-11-17T09:46:52.815Z,1001.41
2016-11-17T09:48:52.860Z,1001.38
2016-11-17T09:49:52.882Z,1001.39
2016-11-17T09:50:52.903Z,1001.4
2016-11-17T09:51:52.926Z,1001.38
2016-11-17T09:52:52.948Z,1001.38
2016-11-17T09:53:52.971Z,1001.4
2016-11-17T09:54:52.994Z,1001.41
2016-11-17T09:55:53.015Z,1001.4
2016-11-17T09:56:53.037Z,1001.42
2016-11-17T09:57:53.060Z,1001.37
2016-11-17T09:58:53.082Z,1001.35
2016-11-17T09:59:53.104Z,1001.34
2016-11-17T10:00:53.127Z,1001.32
2016-11-17T10:01:53.148Z,1001.36
2016-11-17T10:02:53.172Z,1001.33
2016-11-17T10:04:53.215Z,1001.36
2016-11-17T10:05:53.239Z,1001.37
2016-11-17T10:06:53.274Z,1001.34
2016-11-17T10:07:53.282Z,1001.33
2016-11-17T10:08:53.304Z,1001.34
2016-11-17T10:09:53.327Z,1001.34
2016-11-17T10:10:53.349Z,1001.31
2016-11-17T10:11:53.370Z,1001.32
2016-11-17T10:12:53.393Z,1001.28
2016-11-17T10:13:53.415Z,1001.35
2016-11-17T10:14:53.437Z,1001.3
2016-11-17T10:15:53.458Z,1001.29
2016-11-17T10:16:53.482Z,1001.28
2016-11-17T10:17:53.503Z,1001.24
2016-11-17T10:18:53.524Z,1001.2
2016-11-17T10:20:53.570Z,1001.2
2016-11-17T10:21:53.592Z,1001.23
2016-11-17T10:22:53.613Z,1001.22
2016-11-17T10:23:53.635Z,1001.15
2016-11-17T10:24:53.657Z,1001.16
2016-11-17T10:25:53.678Z,1001.15
2016-11-17T10:26:53.701Z,1001.16
2016-11-17T10:27:53.724Z,1001.1
2016-11-17T10:28:53.745Z,1001.13
2016-11-17T10:29:53.767Z,1001.08
2016-11-17T10:30:53.839Z,1001.07
2016-11-17T10:31:53.810Z,1001.1
2016-11-17T10:32:53.834Z,1001.04
2016-11-17T10:33:53.856Z,1001.08
2016-11-17T10:35:53.901Z,1000.99
2016-11-17T10:36:53.922Z,1000.97
2016-11-17T10:37:53.944Z,1000.92
2016-11-17T10:38:53.965Z,1000.86
2016-11-17T10:39:53.987Z,1000.85
2016-11-17T10:40:54.008Z,1000.89
2016-11-17T10:41:54.031Z,1000.81
2016-11-17T10:42:54.052Z,1000.75
2016-11-17T10:43:54.074Z,1000.77
2016-11-17T10:44:54.096Z,1000.76
2016-11-17T10:45:54.119Z,1000.75
2016-11-17T10:46:54.141Z,1000.71
2016-11-17T10:47:54.163Z,1000.69
2016-11-17T10:48:54.234Z,1000.69
2016-11-17T10:49:54.207Z,1000.7
2016-11-17T10:50:54.230Z,1000.7
2016-11-17T10:51:54.251Z,1000.72
2016-11-17T10:52:54.272Z,1000.69
2016-11-17T10:53:54.294Z,1000.72
2016-11-17T10:54:54.316Z,1000.69
2016-11-17T10:55:54.339Z,1000.62
2016-11-17T10:56:54.361Z,1000.61
2016-11-17T10:57:54.383Z,1000.6
2016-11-17T10:58:54.404Z,1000.56
2016-11-17T10:59:54.426Z,1000.59
2016-11-17T11:00:54.447Z,1000.58
2016-11-17T11:01:54.469Z,1000.5
2016-11-17T11:02:54.490Z,1000.51
2016-11-17T11:03:54.513Z,1000.52
2016-11-17T11:04:54.535Z,1000.43
2016-11-17T11:05:54.555Z,1000.41
2016-11-17T11:07:54.599Z,1000.37
2016-11-17T11:08:54.624Z,1000.36
2016-11-17T11:09:54.643Z,1000.32
2016-11-17T11:10:54.664Z,1000.37
2016-11-17T11:11:54.687Z,1000.34
2016-11-17T11:12:54.709Z,1000.29
2016-11-17T11:13:54.730Z,1000.27
2016-11-17T11:14:54.752Z,1000.26
2016-11-17T11:15:54.773Z,1000.25
2016-11-17T11:16:54.794Z,1000.21
2016-11-17T11:17:54.817Z,1000.22
2016-11-17T11:18:54.839Z,1000.21
2016-11-17T11:19:54.860Z,1000.16
2016-11-17T11:20:54.881Z,1000.17
2016-11-17T11:21:54.906Z,1000.18
2016-11-17T11:23:54.948Z,1000.16
2016-11-17T11:24:54.969Z,1000.08
2016-11-17T11:25:54.990Z,1000.1
2016-11-17T11:26:55.012Z,1000.06
2016-11-17T11:27:55.034Z,1000.04
2016-11-17T11:28:55.055Z,1000.13
2016-11-17T11:29:55.078Z,1000.18
2016-11-17T11:30:55.149Z,1000.17
2016-11-17T11:31:55.171Z,1000.1
2016-11-17T11:32:55.142Z,1000.1
2016-11-17T11:33:55.165Z,1000.07
2016-11-17T11:34:55.187Z,1000.08
2016-11-17T11:35:55.207Z,1000.04
2016-11-17T11:36:55.233Z,1000.12
2016-11-17T11:37:55.250Z,1000.1
2016-11-17T11:39:55.294Z,1000.08
2016-11-17T11:40:55.316Z,1000.11
2016-11-17T11:41:55.338Z,1000.1
2016-11-17T11:42:55.358Z,1000.06
2016-11-17T11:43:55.381Z,1000.04
2016-11-17T11:44:55.402Z,1000.03
2016-11-17T11:45:55.424Z,1000.06
2016-11-17T11:46:55.446Z,1000.01
2016-11-17T11:47:55.468Z,1000.03
2016-11-17T11:48:55.489Z,999.99
2016-11-17T11:49:55.510Z,1000.03
2016-11-17T11:50:55.533Z,999.96
2016-11-17T11:51:55.555Z,999.96
2016-11-17T11:52:55.575Z,1000.01
2016-11-17T11:53:55.596Z,999.98
2016-11-17T11:55:55.642Z,1000.05
2016-11-17T11:56:55.662Z,999.99
2016-11-17T11:57:55.686Z,1000.01
2016-11-17T11:58:55.705Z,999.95
2016-11-17T11:59:55.729Z,999.98
2016-11-17T12:00:55.750Z,999.96
2016-11-17T12:01:55.791Z,999.98
2016-11-17T12:02:55.793Z,1000.03
2016-11-17T12:03:55.815Z,999.97
2016-11-17T12:04:55.837Z,999.96
2016-11-17T12:05:55.859Z,999.95
2016-11-17T12:06:55.881Z,999.91
2016-11-17T12:07:55.902Z,999.94
2016-11-17T12:08:55.928Z,999.93
2016-11-17T12:10:55.970Z,999.87
2016-11-17T12:11:55.990Z,999.82
2016-11-17T12:12:56.012Z,999.85
2016-11-17T12:13:56.035Z,999.85
2016-11-17T12:14:56.057Z,999.88
2016-11-17T12:15:56.078Z,999.89
2016-11-17T12:16:56.101Z,999.83
2016-11-17T12:17:56.123Z,999.96
2016-11-17T12:18:56.144Z,999.94
2016-11-17T12:19:56.167Z,999.93
2016-11-17T12:20:56.188Z,999.91
2016-11-17T12:21:56.212Z,999.94
2016-11-17T12:22:56.232Z,999.93
2016-11-17T12:23:56.254Z,999.93
2016-11-17T12:24:56.277Z,999.94
2016-11-17T12:25:56.299Z,999.95
2016-11-17T12:26:56.322Z,999.98
2016-11-17T12:27:56.343Z,999.93
2016-11-17T12:28:56.366Z,999.97
2016-11-17T12:29:56.389Z,999.99
2016-11-17T12:30:56.411Z,999.99
2016-11-17T12:31:56.434Z,999.99
2016-11-17T12:32:56.455Z,1000
2016-11-17T12:33:56.478Z,999.97
2016-11-17T12:34:56.503Z,1000.03
2016-11-17T12:35:56.523Z,999.98
2016-11-17T12:36:56.544Z,1000.03
2016-11-17T12:37:56.566Z,1000.05
2016-11-17T12:38:56.589Z,999.99
2016-11-17T12:39:56.611Z,1000
2016-11-17T12:40:56.632Z,999.94
2016-11-17T12:42:56.678Z,999.93
2016-11-17T12:43:56.700Z,999.9
2016-11-17T12:44:56.722Z,999.96
2016-11-17T12:45:56.757Z,999.9
2016-11-17T12:46:56.768Z,999.96
2016-11-17T12:47:56.790Z,999.96
2016-11-17T12:48:56.812Z,999.94
2016-11-17T12:49:56.833Z,999.95
2016-11-17T12:50:56.856Z,1000
2016-11-17T12:51:56.879Z,999.96